You are listening to:
KPOU Ground/Tower - Poughkeepsie, New York, United States

KPOU 241753Z 35011G19KT 10SM CLR M01/M17 A3010 RMK AO2 SLP191 T10111167 11006 21072 58023

If stream doesn't start automatically press the play button
If stream stops then reload player then press play